sensor_id;sensor_type;location;lat;lon;timestamp;temperature;humidity
51567;DHT22;37657;53.182;5.638;2023-06-19T00:01:42;22.20;99.90
51567;DHT22;37657;53.182;5.638;2023-06-19T00:04:09;22.20;99.90
51567;DHT22;37657;53.182;5.638;2023-06-19T00:06:35;22.30;99.90
51567;DHT22;37657;53.182;5.638;2023-06-19T00:09:00;22.30;99.90
51567;DHT22;37657;53.182;5.638;2023-06-19T00:11:26;22.30;99.90
51567;DHT22;37657;53.182;5.638;2023-06-19T00:13:52;22.20;99.90
51567;DHT22;37657;53.182;5.638;2023-06-19T00:16:17;22.30;99.90
51567;DHT22;37657;53.182;5.638;2023-06-19T00:18:45;22.20;99.90
51567;DHT22;37657;53.182;5.638;2023-06-19T00:21:10;22.20;99.90
51567;DHT22;37657;53.182;5.638;2023-06-19T00:23:36;22.20;99.90
51567;DHT22;37657;53.182;5.638;2023-06-19T00:26:02;22.20;99.90
51567;DHT22;37657;53.182;5.638;2023-06-19T00:28:29;22.20;99.90
51567;DHT22;37657;53.182;5.638;2023-06-19T00:30:54;22.10;99.90
51567;DHT22;37657;53.182;5.638;2023-06-19T00:33:20;22.10;99.90
51567;DHT22;37657;53.182;5.638;2023-06-19T00:35:47;22.10;99.90
51567;DHT22;37657;53.182;5.638;2023-06-19T00:38:13;22.10;99.90
51567;DHT22;37657;53.182;5.638;2023-06-19T00:40:39;22.00;99.90
51567;DHT22;37657;53.182;5.638;2023-06-19T00:43:05;22.00;99.90
51567;DHT22;37657;53.182;5.638;2023-06-19T00:45:31;22.00;99.90
51567;DHT22;37657;53.182;5.638;2023-06-19T00:47:58;22.00;99.90
51567;DHT22;37657;53.182;5.638;2023-06-19T00:50:26;22.00;99.90
51567;DHT22;37657;53.182;5.638;2023-06-19T00:52:53;22.00;99.90
51567;DHT22;37657;53.182;5.638;2023-06-19T00:55:19;22.00;99.90
51567;DHT22;37657;53.182;5.638;2023-06-19T00:57:46;22.00;99.90
51567;DHT22;37657;53.182;5.638;2023-06-19T01:00:12;22.00;99.90
51567;DHT22;37657;53.182;5.638;2023-06-19T01:02:38;22.00;99.90
51567;DHT22;37657;53.182;5.638;2023-06-19T01:05:05;22.00;99.90
51567;DHT22;37657;53.182;5.638;2023-06-19T01:10:36;21.90;99.90
51567;DHT22;37657;53.182;5.638;2023-06-19T01:13:18;21.90;99.90
51567;DHT22;37657;53.182;5.638;2023-06-19T01:15:46;21.90;99.90
51567;DHT22;37657;53.182;5.638;2023-06-19T01:18:13;21.80;99.90
51567;DHT22;37657;53.182;5.638;2023-06-19T01:20:39;21.80;99.90
51567;DHT22;37657;53.182;5.638;2023-06-19T01:23:09;21.80;99.90
51567;DHT22;37657;53.182;5.638;2023-06-19T01:25:36;21.80;99.90
51567;DHT22;37657;53.182;5.638;2023-06-19T01:28:07;21.80;99.90
51567;DHT22;37657;53.182;5.638;2023-06-19T01:30:35;21.80;99.90
51567;DHT22;37657;53.182;5.638;2023-06-19T01:33:18;21.70;99.90
51567;DHT22;37657;53.182;5.638;2023-06-19T01:35:46;21.70;99.90
51567;DHT22;37657;53.182;5.638;2023-06-19T01:38:13;21.60;99.90
51567;DHT22;37657;53.182;5.638;2023-06-19T01:40:40;21.70;99.90
51567;DHT22;37657;53.182;5.638;2023-06-19T01:43:08;21.70;99.90
51567;DHT22;37657;53.182;5.638;2023-06-19T01:45:34;21.70;99.90
51567;DHT22;37657;53.182;5.638;2023-06-19T01:48:00;21.70;99.90
51567;DHT22;37657;53.182;5.638;2023-06-19T01:50:26;21.70;99.90
51567;DHT22;37657;53.182;5.638;2023-06-19T01:52:52;21.70;99.90
51567;DHT22;37657;53.182;5.638;2023-06-19T01:55:18;21.70;99.90
51567;DHT22;37657;53.182;5.638;2023-06-19T01:57:44;21.60;99.90
51567;DHT22;37657;53.182;5.638;2023-06-19T02:00:11;21.60;99.90
51567;DHT22;37657;53.182;5.638;2023-06-19T02:02:37;21.60;99.90
51567;DHT22;37657;53.182;5.638;2023-06-19T02:05:03;21.60;99.90
51567;DHT22;37657;53.182;5.638;2023-06-19T02:07:28;21.60;99.90
51567;DHT22;37657;53.182;5.638;2023-06-19T02:09:54;21.60;99.90
51567;DHT22;37657;53.182;5.638;2023-06-19T02:12:20;21.60;99.90
51567;DHT22;37657;53.182;5.638;2023-06-19T02:14:45;21.70;99.90
51567;DHT22;37657;53.182;5.638;2023-06-19T02:17:11;21.70;99.90
51567;DHT22;37657;53.182;5.638;2023-06-19T02:19:37;21.70;99.90
51567;DHT22;37657;53.182;5.638;2023-06-19T02:22:03;21.70;99.90
51567;DHT22;37657;53.182;5.638;2023-06-19T02:24:28;21.70;99.90
51567;DHT22;37657;53.182;5.638;2023-06-19T02:26:54;21.70;99.90
51567;DHT22;37657;53.182;5.638;2023-06-19T02:29:20;21.60;99.90
51567;DHT22;37657;53.182;5.638;2023-06-19T02:31:45;21.70;99.90
51567;DHT22;37657;53.182;5.638;2023-06-19T02:34:11;21.60;99.90
51567;DHT22;37657;53.182;5.638;2023-06-19T02:36:37;21.50;99.90
51567;DHT22;37657;53.182;5.638;2023-06-19T02:39:04;21.50;99.90
51567;DHT22;37657;53.182;5.638;2023-06-19T02:41:31;21.40;99.90
51567;DHT22;37657;53.182;5.638;2023-06-19T02:43:57;21.50;99.90
51567;DHT22;37657;53.182;5.638;2023-06-19T02:46:23;21.40;99.90
51567;DHT22;37657;53.182;5.638;2023-06-19T02:48:48;21.50;99.90
51567;DHT22;37657;53.182;5.638;2023-06-19T02:51:14;21.40;99.90
51567;DHT22;37657;53.182;5.638;2023-06-19T02:53:40;21.50;99.90
51567;DHT22;37657;53.182;5.638;2023-06-19T02:56:07;21.50;99.90
51567;DHT22;37657;53.182;5.638;2023-06-19T02:58:33;21.40;99.90
51567;DHT22;37657;53.182;5.638;2023-06-19T03:00:59;21.40;99.90
51567;DHT22;37657;53.182;5.638;2023-06-19T03:03:25;21.40;99.90
51567;DHT22;37657;53.182;5.638;2023-06-19T03:05:51;21.30;99.90
51567;DHT22;37657;53.182;5.638;2023-06-19T03:08:17;21.20;99.90
51567;DHT22;37657;53.182;5.638;2023-06-19T03:10:43;21.20;99.90
51567;DHT22;37657;53.182;5.638;2023-06-19T03:13:08;21.20;99.90
51567;DHT22;37657;53.182;5.638;2023-06-19T03:15:34;21.20;99.90
51567;DHT22;37657;53.182;5.638;2023-06-19T03:18:00;21.20;99.90
51567;DHT22;37657;53.182;5.638;2023-06-19T03:20:28;21.10;99.90
51567;DHT22;37657;53.182;5.638;2023-06-19T03:22:54;21.10;99.90
51567;DHT22;37657;53.182;5.638;2023-06-19T03:25:20;21.20;99.90
51567;DHT22;37657;53.182;5.638;2023-06-19T03:27:45;21.20;99.90
51567;DHT22;37657;53.182;5.638;2023-06-19T03:30:11;21.20;99.90
51567;DHT22;37657;53.182;5.638;2023-06-19T03:32:38;21.20;99.90
51567;DHT22;37657;53.182;5.638;2023-06-19T03:35:04;21.10;99.90
51567;DHT22;37657;53.182;5.638;2023-06-19T03:37:31;21.10;99.90
51567;DHT22;37657;53.182;5.638;2023-06-19T03:39:58;21.10;99.90
51567;DHT22;37657;53.182;5.638;2023-06-19T03:42:24;21.10;99.90
51567;DHT22;37657;53.182;5.638;2023-06-19T03:44:49;21.10;99.90
51567;DHT22;37657;53.182;5.638;2023-06-19T03:47:15;21.10;99.90
51567;DHT22;37657;53.182;5.638;2023-06-19T03:49:41;21.00;99.90
51567;DHT22;37657;53.182;5.638;2023-06-19T03:52:07;21.00;99.90
51567;DHT22;37657;53.182;5.638;2023-06-19T03:54:33;21.00;99.90
51567;DHT22;37657;53.182;5.638;2023-06-19T03:56:59;20.90;99.90
51567;DHT22;37657;53.182;5.638;2023-06-19T03:59:25;20.80;99.90
51567;DHT22;37657;53.182;5.638;2023-06-19T04:01:50;20.90;99.90
51567;DHT22;37657;53.182;5.638;2023-06-19T04:04:16;20.80;99.90
51567;DHT22;37657;53.182;5.638;2023-06-19T04:06:42;20.90;99.90
51567;DHT22;37657;53.182;5.638;2023-06-19T04:09:07;20.90;99.90
51567;DHT22;37657;53.182;5.638;2023-06-19T04:11:33;20.90;99.90
51567;DHT22;37657;53.182;5.638;2023-06-19T04:13:59;20.90;99.90
51567;DHT22;37657;53.182;5.638;2023-06-19T04:16:24;20.90;99.90
51567;DHT22;37657;53.182;5.638;2023-06-19T04:18:50;20.90;99.90
51567;DHT22;37657;53.182;5.638;2023-06-19T04:21:15;21.00;99.90
51567;DHT22;37657;53.182;5.638;2023-06-19T04:23:41;21.00;99.90
51567;DHT22;37657;53.182;5.638;2023-06-19T04:26:07;21.10;99.90
51567;DHT22;37657;53.182;5.638;2023-06-19T04:28:32;21.10;99.90
51567;DHT22;37657;53.182;5.638;2023-06-19T04:30:58;21.10;99.90
51567;DHT22;37657;53.182;5.638;2023-06-19T04:33:28;21.00;99.90
51567;DHT22;37657;53.182;5.638;2023-06-19T04:35:54;20.90;99.90
51567;DHT22;37657;53.182;5.638;2023-06-19T04:38:19;20.90;99.90
51567;DHT22;37657;53.182;5.638;2023-06-19T04:40:50;20.90;99.90
51567;DHT22;37657;53.182;5.638;2023-06-19T04:43:16;20.90;99.90
51567;DHT22;37657;53.182;5.638;2023-06-19T04:45:42;21.00;99.90
51567;DHT22;37657;53.182;5.638;2023-06-19T04:48:08;21.00;99.90
51567;DHT22;37657;53.182;5.638;2023-06-19T04:50:34;21.00;99.90
51567;DHT22;37657;53.182;5.638;2023-06-19T04:52:59;20.90;99.90
51567;DHT22;37657;53.182;5.638;2023-06-19T04:55:25;21.00;99.90
51567;DHT22;37657;53.182;5.638;2023-06-19T04:57:51;21.00;99.90
51567;DHT22;37657;53.182;5.638;2023-06-19T05:00:17;21.00;99.90
51567;DHT22;37657;53.182;5.638;2023-06-19T05:02:45;21.00;99.90
51567;DHT22;37657;53.182;5.638;2023-06-19T05:05:13;21.00;99.90
51567;DHT22;37657;53.182;5.638;2023-06-19T05:07:39;21.00;99.90
51567;DHT22;37657;53.182;5.638;2023-06-19T05:10:05;21.10;99.90
51567;DHT22;37657;53.182;5.638;2023-06-19T05:12:31;21.00;99.90
51567;DHT22;37657;53.182;5.638;2023-06-19T05:14:57;21.10;99.90
51567;DHT22;37657;53.182;5.638;2023-06-19T05:17:23;21.10;99.90
51567;DHT22;37657;53.182;5.638;2023-06-19T05:19:49;21.10;99.90
51567;DHT22;37657;53.182;5.638;2023-06-19T05:22:15;21.10;99.90
51567;DHT22;37657;53.182;5.638;2023-06-19T05:24:40;21.10;99.90
51567;DHT22;37657;53.182;5.638;2023-06-19T05:27:06;21.20;99.90
51567;DHT22;37657;53.182;5.638;2023-06-19T05:29:32;21.20;99.90
51567;DHT22;37657;53.182;5.638;2023-06-19T05:31:58;21.30;99.90
51567;DHT22;37657;53.182;5.638;2023-06-19T05:34:24;21.30;99.90
51567;DHT22;37657;53.182;5.638;2023-06-19T05:36:49;21.10;99.90
51567;DHT22;37657;53.182;5.638;2023-06-19T05:39:15;21.30;99.90
51567;DHT22;37657;53.182;5.638;2023-06-19T05:41:40;21.30;99.90
51567;DHT22;37657;53.182;5.638;2023-06-19T05:44:07;21.30;99.90
51567;DHT22;37657;53.182;5.638;2023-06-19T05:46:32;21.30;99.90
51567;DHT22;37657;53.182;5.638;2023-06-19T05:48:58;21.30;99.90
51567;DHT22;37657;53.182;5.638;2023-06-19T05:51:23;21.30;99.90
51567;DHT22;37657;53.182;5.638;2023-06-19T05:53:49;21.30;99.90
51567;DHT22;37657;53.182;5.638;2023-06-19T05:56:16;21.30;99.90
51567;DHT22;37657;53.182;5.638;2023-06-19T05:58:41;21.30;99.90
51567;DHT22;37657;53.182;5.638;2023-06-19T06:01:07;21.30;99.90
51567;DHT22;37657;53.182;5.638;2023-06-19T06:03:33;21.20;99.90
51567;DHT22;37657;53.182;5.638;2023-06-19T06:05:59;21.10;99.90
51567;DHT22;37657;53.182;5.638;2023-06-19T06:08:29;21.10;99.90
51567;DHT22;37657;53.182;5.638;2023-06-19T06:10:55;21.10;99.90
51567;DHT22;37657;53.182;5.638;2023-06-19T06:13:21;21.10;99.90
51567;DHT22;37657;53.182;5.638;2023-06-19T06:15:46;20.90;99.90
51567;DHT22;37657;53.182;5.638;2023-06-19T06:18:12;20.70;99.90
51567;DHT22;37657;53.182;5.638;2023-06-19T06:20:38;20.60;99.90
51567;DHT22;37657;53.182;5.638;2023-06-19T06:23:04;20.60;99.90
51567;DHT22;37657;53.182;5.638;2023-06-19T06:25:29;20.50;99.90
51567;DHT22;37657;53.182;5.638;2023-06-19T06:27:55;20.60;99.90
51567;DHT22;37657;53.182;5.638;2023-06-19T06:30:21;20.60;99.90
51567;DHT22;37657;53.182;5.638;2023-06-19T06:32:48;20.50;99.90
51567;DHT22;37657;53.182;5.638;2023-06-19T06:35:13;20.50;99.90
51567;DHT22;37657;53.182;5.638;2023-06-19T06:37:39;20.40;99.90
51567;DHT22;37657;53.182;5.638;2023-06-19T06:40:07;20.30;99.90
51567;DHT22;37657;53.182;5.638;2023-06-19T06:42:35;20.30;99.90
51567;DHT22;37657;53.182;5.638;2023-06-19T06:45:00;20.10;99.90
51567;DHT22;37657;53.182;5.638;2023-06-19T06:47:26;20.00;99.90
51567;DHT22;37657;53.182;5.638;2023-06-19T06:49:52;19.90;99.90
51567;DHT22;37657;53.182;5.638;2023-06-19T06:52:17;19.90;99.90
51567;DHT22;37657;53.182;5.638;2023-06-19T06:54:43;19.80;99.90
51567;DHT22;37657;53.182;5.638;2023-06-19T06:57:09;19.70;99.90
51567;DHT22;37657;53.182;5.638;2023-06-19T06:59:35;19.80;99.90
51567;DHT22;37657;53.182;5.638;2023-06-19T07:02:00;19.70;99.90
51567;DHT22;37657;53.182;5.638;2023-06-19T07:04:26;19.60;99.90
51567;DHT22;37657;53.182;5.638;2023-06-19T07:06:51;19.40;99.90
51567;DHT22;37657;53.182;5.638;2023-06-19T07:09:18;19.50;99.90
51567;DHT22;37657;53.182;5.638;2023-06-19T07:11:43;19.40;99.90
51567;DHT22;37657;53.182;5.638;2023-06-19T07:14:09;19.20;99.90
51567;DHT22;37657;53.182;5.638;2023-06-19T07:16:34;19.30;99.90
51567;DHT22;37657;53.182;5.638;2023-06-19T07:19:00;19.20;99.90
51567;DHT22;37657;53.182;5.638;2023-06-19T07:21:27;19.20;99.90
51567;DHT22;37657;53.182;5.638;2023-06-19T07:23:53;19.20;99.90
51567;DHT22;37657;53.182;5.638;2023-06-19T07:26:20;19.10;99.90
51567;DHT22;37657;53.182;5.638;2023-06-19T07:28:45;19.10;99.90
51567;DHT22;37657;53.182;5.638;2023-06-19T07:31:11;19.10;99.90
51567;DHT22;37657;53.182;5.638;2023-06-19T07:33:37;19.10;99.90
51567;DHT22;37657;53.182;5.638;2023-06-19T07:36:02;19.00;99.90
51567;DHT22;37657;53.182;5.638;2023-06-19T07:38:28;19.20;99.90
51567;DHT22;37657;53.182;5.638;2023-06-19T07:40:54;19.10;99.90
51567;DHT22;37657;53.182;5.638;2023-06-19T07:43:20;19.10;99.90
51567;DHT22;37657;53.182;5.638;2023-06-19T07:45:48;19.20;99.90
51567;DHT22;37657;53.182;5.638;2023-06-19T07:48:14;18.80;99.90
51567;DHT22;37657;53.182;5.638;2023-06-19T07:50:40;18.90;99.90
51567;DHT22;37657;53.182;5.638;2023-06-19T07:53:05;18.90;99.90
51567;DHT22;37657;53.182;5.638;2023-06-19T07:55:31;18.80;99.90
51567;DHT22;37657;53.182;5.638;2023-06-19T07:57:57;19.00;99.90
51567;DHT22;37657;53.182;5.638;2023-06-19T08:00:24;18.90;99.90
51567;DHT22;37657;53.182;5.638;2023-06-19T08:02:50;18.70;99.90
51567;DHT22;37657;53.182;5.638;2023-06-19T08:05:16;18.60;99.90
51567;DHT22;37657;53.182;5.638;2023-06-19T08:07:41;18.90;99.90
51567;DHT22;37657;53.182;5.638;2023-06-19T08:10:07;18.60;99.90
51567;DHT22;37657;53.182;5.638;2023-06-19T08:12:33;18.50;99.90
51567;DHT22;37657;53.182;5.638;2023-06-19T08:14:59;18.60;99.90
51567;DHT22;37657;53.182;5.638;2023-06-19T08:17:25;18.70;99.90
51567;DHT22;37657;53.182;5.638;2023-06-19T08:19:50;18.60;99.90
51567;DHT22;37657;53.182;5.638;2023-06-19T08:22:16;18.70;99.90
51567;DHT22;37657;53.182;5.638;2023-06-19T08:24:42;18.80;99.90
51567;DHT22;37657;53.182;5.638;2023-06-19T08:27:07;18.50;99.90
51567;DHT22;37657;53.182;5.638;2023-06-19T08:29:33;18.70;99.90
51567;DHT22;37657;53.182;5.638;2023-06-19T08:31:59;18.60;99.90
51567;DHT22;37657;53.182;5.638;2023-06-19T08:34:25;18.80;99.90
51567;DHT22;37657;53.182;5.638;2023-06-19T08:36:51;18.70;99.90
51567;DHT22;37657;53.182;5.638;2023-06-19T08:39:17;18.90;99.90
51567;DHT22;37657;53.182;5.638;2023-06-19T08:41:43;18.70;99.90
51567;DHT22;37657;53.182;5.638;2023-06-19T08:44:09;18.70;99.90
51567;DHT22;37657;53.182;5.638;2023-06-19T08:46:35;18.70;99.90
51567;DHT22;37657;53.182;5.638;2023-06-19T08:49:03;18.90;99.90
51567;DHT22;37657;53.182;5.638;2023-06-19T08:51:31;18.80;99.90
51567;DHT22;37657;53.182;5.638;2023-06-19T08:54:03;18.90;99.90
51567;DHT22;37657;53.182;5.638;2023-06-19T08:56:33;18.80;99.90
51567;DHT22;37657;53.182;5.638;2023-06-19T08:59:16;18.90;99.90
51567;DHT22;37657;53.182;5.638;2023-06-19T09:01:52;19.00;99.90
51567;DHT22;37657;53.182;5.638;2023-06-19T09:04:27;18.80;99.90
51567;DHT22;37657;53.182;5.638;2023-06-19T09:06:54;18.90;99.90
51567;DHT22;37657;53.182;5.638;2023-06-19T09:09:22;18.90;99.90
51567;DHT22;37657;53.182;5.638;2023-06-19T09:12:00;18.80;99.90
51567;DHT22;37657;53.182;5.638;2023-06-19T09:14:38;18.80;99.90
51567;DHT22;37657;53.182;5.638;2023-06-19T09:17:06;18.70;99.90
51567;DHT22;37657;53.182;5.638;2023-06-19T09:19:35;18.60;99.90
51567;DHT22;37657;53.182;5.638;2023-06-19T09:22:06;18.50;99.90
51567;DHT22;37657;53.182;5.638;2023-06-19T09:24:36;18.60;99.90
51567;DHT22;37657;53.182;5.638;2023-06-19T09:27:10;18.50;99.90
51567;DHT22;37657;53.182;5.638;2023-06-19T09:29:42;18.50;99.90
51567;DHT22;37657;53.182;5.638;2023-06-19T09:32:18;18.50;99.90
51567;DHT22;37657;53.182;5.638;2023-06-19T09:34:44;18.50;99.90
51567;DHT22;37657;53.182;5.638;2023-06-19T09:37:10;18.50;99.90
51567;DHT22;37657;53.182;5.638;2023-06-19T09:39:38;18.40;99.90
51567;DHT22;37657;53.182;5.638;2023-06-19T09:42:07;18.40;99.90
51567;DHT22;37657;53.182;5.638;2023-06-19T09:44:41;18.60;99.90
51567;DHT22;37657;53.182;5.638;2023-06-19T09:47:23;18.60;99.90
51567;DHT22;37657;53.182;5.638;2023-06-19T09:49:55;18.70;99.90
51567;DHT22;37657;53.182;5.638;2023-06-19T09:52:23;18.90;99.90
51567;DHT22;37657;53.182;5.638;2023-06-19T09:54:53;19.00;99.90
51567;DHT22;37657;53.182;5.638;2023-06-19T09:57:19;19.20;99.90
51567;DHT22;37657;53.182;5.638;2023-06-19T09:59:47;19.30;99.90
51567;DHT22;37657;53.182;5.638;2023-06-19T10:02:16;19.30;99.90
51567;DHT22;37657;53.182;5.638;2023-06-19T10:04:50;19.30;99.90
51567;DHT22;37657;53.182;5.638;2023-06-19T10:07:20;19.40;99.90
51567;DHT22;37657;53.182;5.638;2023-06-19T10:10:03;19.40;99.90
51567;DHT22;37657;53.182;5.638;2023-06-19T10:12:45;19.60;99.90
51567;DHT22;37657;53.182;5.638;2023-06-19T10:15:16;19.70;99.90
51567;DHT22;37657;53.182;5.638;2023-06-19T10:18:03;19.70;99.90
51567;DHT22;37657;53.182;5.638;2023-06-19T10:20:34;19.60;99.90
51567;DHT22;37657;53.182;5.638;2023-06-19T10:23:17;19.60;99.90
51567;DHT22;37657;53.182;5.638;2023-06-19T10:28:23;19.40;99.90
51567;DHT22;37657;53.182;5.638;2023-06-19T10:30:59;19.40;99.90
51567;DHT22;37657;53.182;5.638;2023-06-19T10:33:28;19.40;99.90
51567;DHT22;37657;53.182;5.638;2023-06-19T10:35:55;19.20;99.90
51567;DHT22;37657;53.182;5.638;2023-06-19T10:38:21;19.30;99.90
51567;DHT22;37657;53.182;5.638;2023-06-19T10:40:47;19.30;99.90
51567;DHT22;37657;53.182;5.638;2023-06-19T10:43:19;19.40;99.90
51567;DHT22;37657;53.182;5.638;2023-06-19T10:45:45;19.70;99.90
51567;DHT22;37657;53.182;5.638;2023-06-19T10:48:10;19.80;99.90
51567;DHT22;37657;53.182;5.638;2023-06-19T10:50:42;19.90;99.90
51567;DHT22;37657;53.182;5.638;2023-06-19T10:53:07;19.90;99.90
51567;DHT22;37657;53.182;5.638;2023-06-19T10:55:33;20.00;99.90
51567;DHT22;37657;53.182;5.638;2023-06-19T10:57:59;20.10;99.90
51567;DHT22;37657;53.182;5.638;2023-06-19T11:00:27;20.10;99.90
51567;DHT22;37657;53.182;5.638;2023-06-19T11:02:53;20.00;99.90
51567;DHT22;37657;53.182;5.638;2023-06-19T11:05:23;20.00;99.90
51567;DHT22;37657;53.182;5.638;2023-06-19T11:10:23;19.80;99.90
51567;DHT22;37657;53.182;5.638;2023-06-19T11:12:50;19.90;99.90
51567;DHT22;37657;53.182;5.638;2023-06-19T11:15:18;20.10;99.90
51567;DHT22;37657;53.182;5.638;2023-06-19T11:17:44;20.10;99.90
51567;DHT22;37657;53.182;5.638;2023-06-19T11:20:11;20.10;99.90
51567;DHT22;37657;53.182;5.638;2023-06-19T11:22:38;20.20;99.90
51567;DHT22;37657;53.182;5.638;2023-06-19T11:25:05;20.30;99.90
51567;DHT22;37657;53.182;5.638;2023-06-19T11:27:31;20.40;99.90
51567;DHT22;37657;53.182;5.638;2023-06-19T11:29:58;20.40;99.90
51567;DHT22;37657;53.182;5.638;2023-06-19T11:32:28;20.50;99.90
51567;DHT22;37657;53.182;5.638;2023-06-19T11:34:57;20.60;99.90
51567;DHT22;37657;53.182;5.638;2023-06-19T11:37:22;20.60;99.90
51567;DHT22;37657;53.182;5.638;2023-06-19T11:39:49;20.80;99.90
51567;DHT22;37657;53.182;5.638;2023-06-19T11:42:16;21.00;99.90
51567;DHT22;37657;53.182;5.638;2023-06-19T11:45:03;21.10;99.90
51567;DHT22;37657;53.182;5.638;2023-06-19T11:47:32;21.30;99.90
51567;DHT22;37657;53.182;5.638;2023-06-19T11:49:58;21.60;99.90
51567;DHT22;37657;53.182;5.638;2023-06-19T11:52:24;21.80;99.90
51567;DHT22;37657;53.182;5.638;2023-06-19T11:54:50;22.00;99.90
51567;DHT22;37657;53.182;5.638;2023-06-19T11:57:15;22.00;99.90
51567;DHT22;37657;53.182;5.638;2023-06-19T11:59:41;22.00;99.90
51567;DHT22;37657;53.182;5.638;2023-06-19T12:02:08;21.80;99.90
51567;DHT22;37657;53.182;5.638;2023-06-19T12:04:34;22.10;99.90
51567;DHT22;37657;53.182;5.638;2023-06-19T12:07:00;22.20;99.90
51567;DHT22;37657;53.182;5.638;2023-06-19T12:09:26;22.40;99.90
51567;DHT22;37657;53.182;5.638;2023-06-19T12:11:51;22.60;99.90
51567;DHT22;37657;53.182;5.638;2023-06-19T12:14:17;22.70;99.90
51567;DHT22;37657;53.182;5.638;2023-06-19T12:16:45;22.90;99.90
51567;DHT22;37657;53.182;5.638;2023-06-19T12:19:11;22.90;99.90
51567;DHT22;37657;53.182;5.638;2023-06-19T12:21:37;22.90;99.90
51567;DHT22;37657;53.182;5.638;2023-06-19T12:24:02;22.90;99.90
51567;DHT22;37657;53.182;5.638;2023-06-19T12:26:28;22.90;99.90
51567;DHT22;37657;53.182;5.638;2023-06-19T12:28:54;22.90;99.90
51567;DHT22;37657;53.182;5.638;2023-06-19T12:31:20;23.00;99.90
51567;DHT22;37657;53.182;5.638;2023-06-19T12:33:46;22.90;99.90
51567;DHT22;37657;53.182;5.638;2023-06-19T12:36:14;23.00;99.90
51567;DHT22;37657;53.182;5.638;2023-06-19T12:38:40;23.10;99.90
51567;DHT22;37657;53.182;5.638;2023-06-19T12:41:06;23.10;99.90
51567;DHT22;37657;53.182;5.638;2023-06-19T12:43:32;23.20;99.90
51567;DHT22;37657;53.182;5.638;2023-06-19T12:45:58;23.20;99.90
51567;DHT22;37657;53.182;5.638;2023-06-19T12:48:27;23.30;99.90
51567;DHT22;37657;53.182;5.638;2023-06-19T12:50:53;23.40;99.90
51567;DHT22;37657;53.182;5.638;2023-06-19T12:53:19;23.40;99.90
51567;DHT22;37657;53.182;5.638;2023-06-19T12:55:45;23.40;99.90
51567;DHT22;37657;53.182;5.638;2023-06-19T12:58:10;23.40;99.90
51567;DHT22;37657;53.182;5.638;2023-06-19T13:00:37;23.40;99.90
51567;DHT22;37657;53.182;5.638;2023-06-19T13:03:02;23.50;99.90
51567;DHT22;37657;53.182;5.638;2023-06-19T13:05:28;23.60;99.90
51567;DHT22;37657;53.182;5.638;2023-06-19T13:07:54;23.70;99.90
51567;DHT22;37657;53.182;5.638;2023-06-19T13:10:20;23.60;99.90
51567;DHT22;37657;53.182;5.638;2023-06-19T13:12:45;23.70;99.90
51567;DHT22;37657;53.182;5.638;2023-06-19T13:15:11;23.70;99.90
51567;DHT22;37657;53.182;5.638;2023-06-19T13:17:37;23.70;99.90
51567;DHT22;37657;53.182;5.638;2023-06-19T13:20:02;23.70;99.90
51567;DHT22;37657;53.182;5.638;2023-06-19T13:22:30;23.60;99.90
51567;DHT22;37657;53.182;5.638;2023-06-19T13:24:56;23.60;99.90
51567;DHT22;37657;53.182;5.638;2023-06-19T13:27:22;23.50;99.90
51567;DHT22;37657;53.182;5.638;2023-06-19T13:29:48;23.50;99.90
51567;DHT22;37657;53.182;5.638;2023-06-19T13:32:13;23.40;99.90
51567;DHT22;37657;53.182;5.638;2023-06-19T13:34:39;23.40;99.90
51567;DHT22;37657;53.182;5.638;2023-06-19T13:37:04;23.30;99.90
51567;DHT22;37657;53.182;5.638;2023-06-19T13:39:30;23.40;99.90
51567;DHT22;37657;53.182;5.638;2023-06-19T13:41:56;23.50;99.90
51567;DHT22;37657;53.182;5.638;2023-06-19T13:44:21;23.40;99.90
51567;DHT22;37657;53.182;5.638;2023-06-19T13:46:47;23.40;99.90
51567;DHT22;37657;53.182;5.638;2023-06-19T13:49:12;23.50;99.90
51567;DHT22;37657;53.182;5.638;2023-06-19T13:51:39;23.50;99.90
51567;DHT22;37657;53.182;5.638;2023-06-19T13:54:05;23.50;99.90
51567;DHT22;37657;53.182;5.638;2023-06-19T13:56:31;23.60;99.90
51567;DHT22;37657;53.182;5.638;2023-06-19T13:58:58;23.70;99.90
51567;DHT22;37657;53.182;5.638;2023-06-19T14:01:24;23.70;99.90
51567;DHT22;37657;53.182;5.638;2023-06-19T14:03:51;23.60;99.90
51567;DHT22;37657;53.182;5.638;2023-06-19T14:06:17;23.60;99.90
51567;DHT22;37657;53.182;5.638;2023-06-19T14:08:43;23.60;99.90
51567;DHT22;37657;53.182;5.638;2023-06-19T14:11:09;23.60;99.90
51567;DHT22;37657;53.182;5.638;2023-06-19T14:13:35;23.70;99.90
51567;DHT22;37657;53.182;5.638;2023-06-19T14:16:01;23.60;99.90
51567;DHT22;37657;53.182;5.638;2023-06-19T14:18:27;23.60;99.90
51567;DHT22;37657;53.182;5.638;2023-06-19T14:20:52;23.60;99.90
51567;DHT22;37657;53.182;5.638;2023-06-19T14:23:18;23.70;99.90
51567;DHT22;37657;53.182;5.638;2023-06-19T14:25:43;23.50;99.90
51567;DHT22;37657;53.182;5.638;2023-06-19T14:28:09;23.60;99.90
51567;DHT22;37657;53.182;5.638;2023-06-19T14:30:35;23.60;99.90
51567;DHT22;37657;53.182;5.638;2023-06-19T14:33:00;23.40;99.90
51567;DHT22;37657;53.182;5.638;2023-06-19T14:35:27;23.50;99.90
51567;DHT22;37657;53.182;5.638;2023-06-19T14:37:52;23.40;99.90
51567;DHT22;37657;53.182;5.638;2023-06-19T14:40:18;23.40;99.90
51567;DHT22;37657;53.182;5.638;2023-06-19T14:42:44;23.40;99.90
51567;DHT22;37657;53.182;5.638;2023-06-19T14:45:09;23.40;99.90
51567;DHT22;37657;53.182;5.638;2023-06-19T14:47:35;23.40;99.90
51567;DHT22;37657;53.182;5.638;2023-06-19T14:50:01;23.40;99.90
51567;DHT22;37657;53.182;5.638;2023-06-19T14:52:27;23.40;99.90
51567;DHT22;37657;53.182;5.638;2023-06-19T14:54:52;23.40;99.90
51567;DHT22;37657;53.182;5.638;2023-06-19T14:57:18;23.50;99.90
51567;DHT22;37657;53.182;5.638;2023-06-19T14:59:43;23.50;99.90
51567;DHT22;37657;53.182;5.638;2023-06-19T15:02:09;23.60;99.90
51567;DHT22;37657;53.182;5.638;2023-06-19T15:04:36;23.60;99.90
51567;DHT22;37657;53.182;5.638;2023-06-19T15:07:02;23.60;99.90
51567;DHT22;37657;53.182;5.638;2023-06-19T15:09:27;23.70;99.90
51567;DHT22;37657;53.182;5.638;2023-06-19T15:11:56;23.70;99.90
51567;DHT22;37657;53.182;5.638;2023-06-19T15:14:21;23.60;99.90
51567;DHT22;37657;53.182;5.638;2023-06-19T15:16:47;23.50;99.90
51567;DHT22;37657;53.182;5.638;2023-06-19T15:19:13;23.40;99.90
51567;DHT22;37657;53.182;5.638;2023-06-19T15:21:40;23.40;99.90
51567;DHT22;37657;53.182;5.638;2023-06-19T15:24:07;23.40;99.90
51567;DHT22;37657;53.182;5.638;2023-06-19T15:26:34;23.40;99.90
51567;DHT22;37657;53.182;5.638;2023-06-19T15:29:01;23.30;99.90
51567;DHT22;37657;53.182;5.638;2023-06-19T15:31:28;23.40;99.90
51567;DHT22;37657;53.182;5.638;2023-06-19T15:33:53;23.40;99.90
51567;DHT22;37657;53.182;5.638;2023-06-19T15:36:19;23.30;99.90